createdAt,value
2022-10-15T00:00:31.201Z,13.38
2022-10-15T00:03:00.287Z,13.09
2022-10-15T00:05:29.710Z,13.21
2022-10-15T00:07:59.781Z,13.39
2022-10-15T00:10:31.135Z,12.96
2022-10-15T00:15:32.168Z,13.15
2022-10-15T00:18:02.152Z,13.03
2022-10-15T00:20:32.235Z,12.91
2022-10-15T00:23:05.113Z,13.03
2022-10-15T00:25:34.646Z,13.15
2022-10-15T00:28:04.731Z,12.69
2022-10-15T00:30:33.232Z,13.28
2022-10-15T00:33:04.082Z,13.15
2022-10-15T00:35:33.003Z,13.04
2022-10-15T00:38:03.993Z,12.86
2022-10-15T00:40:33.110Z,12.98
2022-10-15T00:43:02.527Z,12.99
2022-10-15T00:45:35.782Z,12.74
2022-10-15T00:48:08.759Z,12.99
2022-10-15T00:50:39.611Z,12.50
2022-10-15T00:53:11.951Z,13.04
2022-10-15T00:55:43.994Z,13.03
2022-10-15T00:58:19.218Z,12.53
2022-10-15T01:00:51.231Z,12.52
2022-10-15T01:03:20.501Z,12.67
2022-10-15T01:05:53.162Z,12.58
2022-10-15T01:08:22.502Z,12.82
2022-10-15T01:11:05.860Z,12.81
2022-10-15T01:14:37.694Z,13.13
2022-10-15T01:17:17.901Z,12.87
2022-10-15T01:19:57.837Z,12.63
2022-10-15T01:23:06.897Z,12.78
2022-10-15T01:25:50.869Z,12.58
2022-10-15T01:28:55.799Z,12.61
2022-10-15T01:31:30.323Z,12.63
2022-10-15T01:37:35.920Z,12.92
2022-10-15T01:40:48.700Z,12.23
2022-10-15T01:43:28.558Z,12.45
2022-10-15T01:46:22.238Z,12.68
2022-10-15T01:48:56.310Z,13.01
2022-10-15T01:51:25.909Z,12.62
2022-10-15T01:54:02.747Z,12.62
2022-10-15T01:56:35.717Z,12.41
2022-10-15T01:59:06.161Z,12.28
2022-10-15T02:01:37.188Z,12.14
2022-10-15T02:04:25.575Z,12.25
2022-10-15T02:07:09.145Z,12.18
2022-10-15T02:10:01.959Z,12.07
2022-10-15T02:12:50.050Z,11.89
2022-10-15T02:15:59.519Z,11.93
2022-10-15T02:19:01.928Z,12.10
2022-10-15T02:21:43.524Z,12.16
2022-10-15T02:24:28.507Z,12.13
2022-10-15T02:27:01.306Z,12.31
2022-10-15T02:29:36.053Z,12.19
2022-10-15T02:32:07.059Z,12.22
2022-10-15T02:34:38.428Z,11.88
2022-10-15T02:37:13.091Z,11.99
2022-10-15T02:39:42.867Z,12.13
2022-10-15T02:42:12.963Z,12.15
2022-10-15T02:44:42.977Z,12.19
2022-10-15T02:47:14.836Z,12.02
2022-10-15T02:49:44.768Z,11.92
2022-10-15T02:52:18.006Z,11.96
2022-10-15T02:54:47.731Z,11.79
2022-10-15T02:57:17.504Z,12.12
2022-10-15T02:59:46.772Z,11.79
2022-10-15T03:02:19.322Z,11.96
2022-10-15T03:04:53.092Z,12.08
2022-10-15T03:07:25.749Z,11.73
2022-10-15T03:10:01.833Z,11.79
2022-10-15T03:12:33.843Z,11.75
2022-10-15T03:15:08.309Z,11.57
2022-10-15T03:17:37.516Z,11.38
2022-10-15T03:20:13.482Z,11.76
2022-10-15T03:22:46.699Z,11.59
2022-10-15T03:25:19.584Z,11.41
2022-10-15T03:27:54.335Z,11.59
2022-10-15T03:30:24.236Z,11.91
2022-10-15T03:32:58.362Z,11.80
2022-10-15T03:35:29.423Z,11.70
2022-10-15T03:38:01.039Z,12.12
2022-10-15T03:40:32.847Z,11.93
2022-10-15T03:43:10.182Z,11.50
2022-10-15T03:45:39.876Z,11.59
2022-10-15T03:48:12.599Z,11.68
2022-10-15T03:50:42.623Z,11.68
2022-10-15T03:53:14.935Z,11.33
2022-10-15T03:55:45.861Z,11.32
2022-10-15T03:58:19.437Z,11.17
2022-10-15T04:00:54.830Z,11.50
2022-10-15T04:03:26.068Z,11.62
2022-10-15T04:05:58.735Z,11.50
2022-10-15T04:08:33.535Z,11.56
2022-10-15T04:11:09.781Z,11.41
2022-10-15T04:13:43.009Z,11.27
2022-10-15T04:16:14.380Z,11.29
2022-10-15T04:18:46.225Z,11.28
2022-10-15T04:21:14.857Z,11.20
2022-10-15T04:23:50.402Z,11.18
2022-10-15T04:26:22.061Z,11.41
2022-10-15T04:28:53.834Z,11.37
2022-10-15T04:31:25.397Z,11.61
2022-10-15T04:33:57.626Z,11.49
2022-10-15T04:36:30.643Z,11.38
2022-10-15T04:39:01.550Z,11.44
2022-10-15T04:41:34.016Z,11.24
2022-10-15T04:44:06.540Z,11.08
2022-10-15T04:46:36.933Z,11.25
2022-10-15T04:49:08.247Z,11.30
2022-10-15T04:51:39.139Z,11.24
2022-10-15T04:54:12.207Z,10.87
2022-10-15T04:56:50.363Z,10.86
2022-10-15T04:59:19.625Z,10.66
2022-10-15T05:02:00.099Z,10.80
2022-10-15T05:04:32.235Z,11.07
2022-10-15T05:07:04.883Z,10.84
2022-10-15T05:09:37.180Z,10.76
2022-10-15T05:12:14.933Z,10.92
2022-10-15T05:14:46.601Z,10.94
2022-10-15T05:17:17.237Z,10.99
2022-10-15T05:19:47.076Z,11.13
2022-10-15T05:22:18.028Z,10.92
2022-10-15T05:24:52.895Z,10.97
2022-10-15T05:27:27.196Z,10.67
2022-10-15T05:29:56.853Z,11.45
2022-10-15T05:32:29.353Z,10.73
2022-10-15T05:34:59.856Z,11.31
2022-10-15T05:37:35.087Z,11.27
2022-10-15T05:40:04.813Z,11.23
2022-10-15T05:42:35.455Z,11.29
2022-10-15T05:45:09.281Z,11.14
2022-10-15T05:47:38.035Z,11.08
2022-10-15T05:50:11.850Z,11.42
2022-10-15T05:52:40.940Z,11.13
2022-10-15T05:55:11.242Z,11.40
2022-10-15T05:57:41.822Z,11.47
2022-10-15T06:00:12.539Z,11.68
2022-10-15T06:02:41.559Z,11.56
2022-10-15T06:05:11.088Z,11.56
2022-10-15T06:07:41.163Z,11.69
2022-10-15T06:10:11.016Z,11.50
2022-10-15T06:12:41.406Z,11.73
2022-10-15T06:15:10.561Z,11.61
2022-10-15T06:17:41.391Z,11.90
2022-10-15T06:20:10.245Z,12.02
2022-10-15T06:22:41.255Z,12.34
2022-10-15T06:25:11.709Z,12.24
2022-10-15T06:27:48.288Z,12.50
2022-10-15T06:30:18.382Z,12.76
2022-10-15T06:32:53.875Z,12.88
2022-10-15T06:35:27.128Z,12.79
2022-10-15T06:38:00.626Z,12.68
2022-10-15T06:40:33.555Z,12.93
2022-10-15T06:43:08.227Z,12.79
2022-10-15T06:45:42.094Z,12.63
2022-10-15T06:48:14.081Z,12.96
2022-10-15T06:50:44.967Z,13.01
2022-10-15T06:53:17.964Z,13.35
2022-10-15T06:55:47.209Z,13.80
2022-10-15T06:58:18.984Z,14.13
2022-10-15T07:00:47.853Z,14.07
2022-10-15T07:03:17.330Z,14.36
2022-10-15T07:05:46.862Z,14.56
2022-10-15T07:08:19.188Z,14.60
2022-10-15T07:10:49.085Z,14.87
2022-10-15T07:13:20.720Z,15.12
2022-10-15T07:15:54.573Z,15.29
2022-10-15T07:18:23.807Z,15.47
2022-10-15T07:20:53.225Z,15.55
2022-10-15T07:23:26.995Z,15.59
2022-10-15T07:26:02.103Z,15.45
2022-10-15T07:28:31.313Z,15.92
2022-10-15T07:31:05.417Z,15.91
2022-10-15T07:33:36.208Z,16.08
2022-10-15T07:36:08.389Z,16.06
2022-10-15T07:38:38.514Z,16.40
2022-10-15T07:41:10.960Z,16.61
2022-10-15T07:43:43.666Z,16.62
2022-10-15T07:46:13.735Z,16.73
2022-10-15T07:48:43.562Z,16.78
2022-10-15T07:51:13.499Z,17.03
2022-10-15T07:53:44.570Z,17.07
2022-10-15T07:56:16.952Z,17.22
2022-10-15T07:58:52.311Z,17.32
2022-10-15T08:01:22.639Z,17.39
2022-10-15T08:03:52.167Z,17.25
2022-10-15T08:06:21.152Z,17.15
2022-10-15T08:08:50.315Z,17.02
2022-10-15T08:11:19.793Z,17.10
2022-10-15T08:13:50.004Z,17.63
2022-10-15T08:16:20.498Z,17.75
2022-10-15T08:18:55.646Z,17.94
2022-10-15T08:21:24.982Z,17.96
2022-10-15T08:23:55.024Z,18.15
2022-10-15T08:26:35.063Z,18.29
2022-10-15T08:29:04.424Z,18.32
2022-10-15T08:31:40.131Z,18.00
2022-10-15T08:34:09.767Z,18.47
2022-10-15T08:36:41.106Z,18.63
2022-10-15T08:39:10.717Z,18.33
2022-10-15T08:41:50.925Z,18.51
2022-10-15T08:44:39.268Z,18.42
2022-10-15T08:47:35.513Z,18.58
2022-10-15T08:50:18.783Z,18.73
2022-10-15T08:52:52.631Z,19.03
2022-10-15T08:58:01.963Z,19.14
2022-10-15T09:00:41.746Z,19.22
2022-10-15T09:03:33.446Z,19.35
2022-10-15T09:06:12.536Z,18.97
2022-10-15T09:09:15.105Z,18.70
2022-10-15T09:12:09.471Z,18.81
2022-10-15T09:14:43.517Z,18.65
2022-10-15T09:17:27.960Z,18.49
2022-10-15T09:20:04.911Z,19.07
2022-10-15T09:22:35.629Z,19.02
2022-10-15T09:25:22.706Z,18.84
2022-10-15T09:27:53.587Z,19.00
2022-10-15T09:30:38.608Z,18.95
2022-10-15T09:33:23.981Z,19.09
2022-10-15T09:36:15.869Z,19.24
2022-10-15T09:39:09.653Z,19.60
2022-10-15T09:42:01.500Z,19.82
2022-10-15T09:44:37.866Z,19.72
2022-10-15T09:47:25.140Z,19.82
2022-10-15T09:49:58.695Z,19.83
2022-10-15T09:52:59.396Z,19.93
2022-10-15T09:55:38.581Z,20.14
2022-10-15T09:58:18.735Z,19.87
2022-10-15T10:00:56.286Z,20.16
2022-10-15T10:03:27.922Z,20.70
2022-10-15T10:06:10.816Z,20.83
2022-10-15T10:08:53.409Z,20.80
2022-10-15T10:11:26.888Z,20.84
2022-10-15T10:14:01.203Z,20.72
2022-10-15T10:16:32.668Z,20.76
2022-10-15T10:19:07.538Z,20.77
2022-10-15T10:21:39.800Z,20.88
2022-10-15T10:24:30.930Z,21.13
2022-10-15T10:27:01.867Z,21.25
2022-10-15T10:29:34.765Z,21.12
2022-10-15T10:32:22.740Z,21.05
2022-10-15T10:34:53.104Z,20.95
2022-10-15T10:37:25.072Z,21.15
2022-10-15T10:39:58.583Z,21.30
2022-10-15T10:42:36.583Z,21.36
2022-10-15T10:47:56.633Z,21.68
2022-10-15T10:50:31.181Z,21.45
2022-10-15T10:53:24.998Z,21.33
2022-10-15T10:55:56.001Z,21.53
2022-10-15T10:58:28.179Z,21.56
2022-10-15T11:00:58.277Z,21.21
2022-10-15T11:03:37.662Z,21.24
2022-10-15T11:06:12.387Z,21.05
2022-10-15T11:09:15.591Z,21.13
2022-10-15T11:11:57.415Z,21.18
2022-10-15T11:14:42.888Z,20.81
2022-10-15T11:17:17.231Z,20.52
2022-10-15T11:22:57.933Z,20.64
2022-10-15T11:25:39.533Z,20.51
2022-10-15T11:28:53.963Z,20.60
2022-10-15T11:31:49.079Z,20.63
2022-10-15T11:34:45.617Z,20.87
2022-10-15T11:37:20.139Z,20.71
2022-10-15T11:39:58.684Z,20.27
2022-10-15T11:42:37.698Z,20.50
2022-10-15T11:45:15.619Z,20.65
2022-10-15T11:47:59.101Z,21.04
2022-10-15T11:50:51.273Z,21.08
2022-10-15T11:53:53.916Z,21.32
2022-10-15T11:56:38.793Z,20.99
2022-10-15T11:59:21.160Z,21.32
2022-10-15T12:01:55.298Z,21.48
2022-10-15T12:04:38.888Z,21.42
2022-10-15T12:07:12.330Z,21.32
2022-10-15T12:09:43.962Z,21.38
2022-10-15T12:12:41.275Z,21.59
2022-10-15T12:15:47.899Z,21.36
2022-10-15T12:18:41.059Z,21.39
2022-10-15T12:21:48.839Z,21.52
2022-10-15T12:24:41.670Z,21.44
2022-10-15T12:27:18.907Z,21.50
2022-10-15T12:30:12.745Z,21.28
2022-10-15T12:32:42.390Z,21.27
2022-10-15T12:35:14.575Z,21.12
2022-10-15T12:37:44.673Z,21.02
2022-10-15T12:40:21.295Z,20.83
2022-10-15T12:42:52.256Z,21.29
2022-10-15T12:45:26.044Z,21.00
2022-10-15T12:47:56.528Z,21.04
2022-10-15T12:50:26.800Z,21.05
2022-10-15T12:53:03.687Z,21.09
2022-10-15T12:55:34.358Z,21.19
2022-10-15T12:58:26.752Z,21.06
2022-10-15T13:00:54.357Z,20.86
2022-10-15T13:03:23.039Z,20.92
2022-10-15T13:05:54.070Z,21.18
2022-10-15T13:08:34.881Z,20.95
2022-10-15T13:11:03.408Z,20.66
2022-10-15T13:13:34.191Z,21.10
2022-10-15T13:16:08.419Z,21.13
2022-10-15T13:18:36.582Z,21.04
2022-10-15T13:21:05.990Z,21.11
2022-10-15T13:23:36.716Z,20.88
2022-10-15T13:26:18.256Z,20.94
2022-10-15T13:28:48.236Z,21.19
2022-10-15T13:31:24.794Z,20.95
2022-10-15T13:33:59.932Z,20.94
2022-10-15T13:36:34.294Z,21.21
2022-10-15T13:39:23.030Z,21.17
2022-10-15T13:41:51.088Z,21.07
2022-10-15T13:44:23.445Z,21.30
2022-10-15T13:46:51.776Z,21.39
2022-10-15T13:49:21.489Z,21.46
2022-10-15T13:51:53.715Z,21.31
2022-10-15T13:54:23.984Z,21.26
2022-10-15T13:56:58.108Z,21.35
2022-10-15T13:59:28.543Z,21.27
2022-10-15T14:02:01.227Z,21.30
2022-10-15T14:04:30.898Z,21.54
2022-10-15T14:07:05.361Z,21.40
2022-10-15T14:09:37.599Z,21.60
2022-10-15T14:12:07.264Z,21.72
2022-10-15T14:14:41.824Z,21.46
2022-10-15T14:17:17.619Z,21.40
2022-10-15T14:20:14.265Z,21.30
2022-10-15T14:22:41.009Z,21.43
2022-10-15T14:27:38.502Z,21.47
2022-10-15T14:30:14.400Z,21.17
2022-10-15T14:32:55.034Z,21.16
2022-10-15T14:35:30.242Z,21.14
2022-10-15T14:38:03.480Z,20.94
2022-10-15T14:40:31.449Z,20.99
2022-10-15T14:43:07.183Z,21.12
2022-10-15T14:45:56.994Z,20.67
2022-10-15T14:48:36.544Z,20.97
2022-10-15T14:51:07.234Z,21.08
2022-10-15T14:53:39.481Z,21.04
2022-10-15T14:56:14.315Z,21.21
2022-10-15T14:58:52.247Z,20.94
2022-10-15T15:01:21.336Z,21.13
2022-10-15T15:03:55.976Z,21.15
2022-10-15T15:06:25.159Z,21.02
2022-10-15T15:08:55.642Z,20.84
2022-10-15T15:11:25.026Z,20.90
2022-10-15T15:13:55.665Z,20.88
2022-10-15T15:16:23.695Z,20.84
2022-10-15T15:18:51.325Z,20.82
2022-10-15T15:21:21.963Z,20.83
2022-10-15T15:23:50.215Z,20.78
2022-10-15T15:26:18.319Z,20.94
2022-10-15T15:28:46.451Z,20.88
2022-10-15T15:31:17.215Z,20.83
2022-10-15T15:33:46.177Z,20.68
2022-10-15T15:36:19.193Z,20.70
2022-10-15T15:38:51.767Z,20.61
2022-10-15T15:41:22.379Z,20.53
2022-10-15T15:43:50.822Z,20.26
2022-10-15T15:46:19.256Z,20.10
2022-10-15T15:48:50.760Z,19.68
2022-10-15T15:51:25.322Z,19.86
2022-10-15T15:53:54.936Z,19.41
2022-10-15T15:56:23.574Z,19.48
2022-10-15T15:58:52.228Z,19.50
2022-10-15T16:01:21.229Z,19.32
2022-10-15T16:03:49.371Z,19.09
2022-10-15T16:06:17.632Z,19.04
2022-10-15T16:08:46.395Z,19.30
2022-10-15T16:11:15.322Z,19.19
2022-10-15T16:13:43.236Z,19.22
2022-10-15T16:16:11.419Z,19.13
2022-10-15T16:18:41.947Z,19.07
2022-10-15T16:21:10.561Z,19.00
2022-10-15T16:23:38.498Z,18.96
2022-10-15T16:26:07.352Z,19.15
2022-10-15T16:28:35.267Z,19.04
2022-10-15T16:31:18.202Z,18.87
2022-10-15T16:33:47.409Z,18.86
2022-10-15T16:36:16.554Z,18.95
2022-10-15T16:38:46.981Z,18.74
2022-10-15T16:41:18.802Z,18.76
2022-10-15T16:43:49.752Z,18.91
2022-10-15T16:46:19.629Z,18.69
2022-10-15T16:48:53.282Z,18.65
2022-10-15T16:51:22.171Z,18.41
2022-10-15T16:53:50.808Z,18.67
2022-10-15T16:56:25.190Z,18.61
2022-10-15T16:58:53.780Z,18.50
2022-10-15T17:01:27.980Z,18.54
2022-10-15T17:03:58.715Z,18.64
2022-10-15T17:06:29.500Z,18.72
2022-10-15T17:08:59.602Z,18.85
2022-10-15T17:11:29.576Z,18.98
2022-10-15T17:14:00.273Z,18.86
2022-10-15T17:16:34.610Z,18.76
2022-10-15T17:19:04.301Z,19.05
2022-10-15T17:21:33.475Z,18.48
2022-10-15T17:24:05.629Z,18.13
2022-10-15T17:26:37.149Z,17.88
2022-10-15T17:29:07.136Z,17.94
2022-10-15T17:31:36.256Z,17.83
2022-10-15T17:34:10.800Z,17.95
2022-10-15T17:36:48.184Z,17.99
2022-10-15T17:39:18.849Z,17.88
2022-10-15T17:41:51.278Z,18.11
2022-10-15T17:44:22.374Z,18.07
2022-10-15T17:46:55.655Z,18.32
2022-10-15T17:49:28.294Z,18.29
2022-10-15T17:52:00.959Z,18.35
2022-10-15T17:54:31.766Z,18.19
2022-10-15T17:57:02.503Z,18.11
2022-10-15T17:59:30.637Z,17.90
2022-10-15T18:02:00.970Z,17.53
2022-10-15T18:04:31.865Z,17.35
2022-10-15T18:07:00.053Z,17.70
2022-10-15T18:09:28.931Z,17.63
2022-10-15T18:12:00.980Z,17.80
2022-10-15T18:14:32.250Z,17.55
2022-10-15T18:17:01.443Z,17.48
2022-10-15T18:19:29.939Z,17.77
2022-10-15T18:21:58.935Z,17.85
2022-10-15T18:24:32.491Z,18.15
2022-10-15T18:27:08.880Z,17.93
2022-10-15T18:29:40.306Z,18.19
2022-10-15T18:32:09.595Z,18.24
2022-10-15T18:34:41.205Z,18.25
2022-10-15T18:37:09.476Z,18.41
2022-10-15T18:39:38.242Z,18.57
2022-10-15T18:42:06.218Z,18.75
2022-10-15T18:44:34.595Z,18.48
2022-10-15T18:47:03.722Z,18.62
2022-10-15T18:49:43.599Z,18.30
2022-10-15T18:52:21.443Z,17.70
2022-10-15T18:55:00.837Z,17.43
2022-10-15T18:57:29.649Z,17.32
2022-10-15T18:59:57.885Z,17.17
2022-10-15T19:02:27.207Z,17.58
2022-10-15T19:04:56.295Z,17.91
2022-10-15T19:07:24.680Z,18.15
2022-10-15T19:09:53.391Z,18.29
2022-10-15T19:12:24.070Z,18.10
2022-10-15T19:14:54.993Z,18.15
2022-10-15T19:17:23.015Z,18.31
2022-10-15T19:19:51.443Z,18.30
2022-10-15T19:22:19.870Z,18.33
2022-10-15T19:24:52.291Z,18.23
2022-10-15T19:27:20.592Z,18.36
2022-10-15T19:29:54.110Z,18.22
2022-10-15T19:32:22.676Z,18.24
2022-10-15T19:34:50.676Z,18.18
2022-10-15T19:37:20.055Z,18.18
2022-10-15T19:39:49.370Z,18.38
2022-10-15T19:42:18.438Z,18.41
2022-10-15T19:44:48.643Z,18.49
2022-10-15T19:47:21.083Z,18.35
2022-10-15T19:49:50.229Z,18.24
2022-10-15T19:52:18.493Z,18.30
2022-10-15T19:54:47.586Z,18.43
2022-10-15T19:57:15.976Z,18.40
2022-10-15T19:59:46.403Z,18.53
2022-10-15T20:02:17.796Z,18.47
2022-10-15T20:04:47.320Z,18.33
2022-10-15T20:07:18.943Z,18.47
2022-10-15T20:09:49.556Z,18.45
2022-10-15T20:12:18.449Z,18.28
2022-10-15T20:14:49.446Z,18.73
2022-10-15T20:17:17.543Z,18.47
2022-10-15T20:19:45.950Z,18.37
2022-10-15T20:22:15.095Z,18.31
2022-10-15T20:24:43.937Z,18.52
2022-10-15T20:27:12.483Z,18.61
2022-10-15T20:29:40.653Z,18.72
2022-10-15T20:32:23.385Z,18.44
2022-10-15T20:35:02.935Z,18.16
2022-10-15T20:37:32.227Z,18.35
2022-10-15T20:40:00.950Z,18.32
2022-10-15T20:42:30.297Z,18.30
2022-10-15T20:44:58.567Z,18.40
2022-10-15T20:47:26.773Z,18.50
2022-10-15T20:49:55.952Z,17.76
2022-10-15T20:52:24.244Z,18.21
2022-10-15T20:54:54.615Z,18.16
2022-10-15T20:57:23.474Z,17.68
2022-10-15T20:59:51.945Z,17.85
2022-10-15T21:02:20.372Z,17.99
2022-10-15T21:04:52.824Z,18.22
2022-10-15T21:09:49.324Z,18.27
2022-10-15T21:12:19.403Z,18.26
2022-10-15T21:14:48.279Z,18.05
2022-10-15T21:17:16.252Z,18.14
2022-10-15T21:19:47.825Z,18.04
2022-10-15T21:22:17.632Z,17.91
2022-10-15T21:24:49.644Z,17.89
2022-10-15T21:27:17.765Z,18.19
2022-10-15T21:29:46.650Z,18.45
2022-10-15T21:32:15.628Z,18.34
2022-10-15T21:34:43.474Z,18.42
2022-10-15T21:37:12.091Z,18.57
2022-10-15T21:39:42.848Z,18.70
2022-10-15T21:42:10.847Z,18.63
2022-10-15T21:44:39.050Z,18.49
2022-10-15T21:47:10.426Z,18.43
2022-10-15T21:49:41.793Z,18.38
2022-10-15T21:52:11.093Z,18.48
2022-10-15T21:54:38.625Z,18.53
2022-10-15T21:57:06.801Z,18.61
2022-10-15T21:59:39.005Z,18.61
2022-10-15T22:02:10.779Z,18.59
2022-10-15T22:04:40.077Z,18.65
2022-10-15T22:07:09.395Z,18.82
2022-10-15T22:09:37.285Z,18.75
2022-10-15T22:12:09.430Z,18.87
2022-10-15T22:14:39.155Z,18.72
2022-10-15T22:17:08.654Z,18.76
2022-10-15T22:19:36.158Z,18.57
2022-10-15T22:22:03.790Z,18.40
2022-10-15T22:24:36.247Z,17.92
2022-10-15T22:27:08.715Z,17.30
2022-10-15T22:29:36.975Z,17.75
2022-10-15T22:32:06.263Z,17.60
2022-10-15T22:34:34.717Z,17.50
2022-10-15T22:37:03.980Z,17.62
2022-10-15T22:39:32.497Z,17.82
2022-10-15T22:42:02.611Z,17.85
2022-10-15T22:44:30.960Z,17.65
2022-10-15T22:46:59.036Z,17.76
2022-10-15T22:49:26.939Z,17.69
2022-10-15T22:51:56.128Z,17.67
2022-10-15T22:54:23.997Z,17.73
2022-10-15T22:56:52.628Z,18.07
2022-10-15T22:59:23.061Z,17.93
2022-10-15T23:01:50.931Z,18.05
2022-10-15T23:04:18.847Z,18.25
2022-10-15T23:06:49.079Z,18.11
2022-10-15T23:09:19.970Z,18.29
2022-10-15T23:11:48.709Z,18.13
2022-10-15T23:14:17.766Z,18.15
2022-10-15T23:16:47.434Z,18.02
2022-10-15T23:19:21.867Z,17.77
2022-10-15T23:21:51.807Z,17.96
2022-10-15T23:24:22.403Z,17.97
2022-10-15T23:26:50.978Z,17.85
2022-10-15T23:29:24.140Z,17.73
2022-10-15T23:31:54.190Z,17.84
2022-10-15T23:34:24.921Z,17.89
2022-10-15T23:36:54.659Z,17.99
2022-10-15T23:39:25.597Z,17.61
2022-10-15T23:41:55.385Z,17.17
2022-10-15T23:44:25.953Z,17.51
2022-10-15T23:46:58.471Z,17.60
2022-10-15T23:49:28.043Z,17.63
2022-10-15T23:51:57.618Z,17.81
2022-10-15T23:54:28.175Z,17.92
2022-10-15T23:56:56.392Z,17.72
2022-10-15T23:59:24.202Z,17.79
